Atka, Alaska
Current Conditions -  °F | °C
As of 6:36 PM on Saturday 25 Oct 2014 (Local Time) from PAAK Reporting Station
Clear Clear  
Wind Chill: 40°   Ceiling: Unl
Heat Index: 45°   Visibility: 6mi
Dew Point: 39°   Wind: 8mph
Humidity: 81%   Direction: 270°W
Pressure: 29.97"   Gusts: NA
Location:  52.19°N, 174.2°W
Report Text: PAAK 260336Z 27007KT 6SM CLR 07/04 A2997 RMK AO1
Loading
Personal Weather Stations






























Interactive Weather Map
Tropical Storm Tracking
New forecast layout! Learn more

10-Day Weather Forecast

Advertisements
Track Severe Weather on mobile